Wassigny (02) - C

Date : 18/02/2018

Place Nom Licence Catégorie Club Temps CN à J-60 Points Différence Nouveau CN
1 VILLAR Aurélie 18133 D45 6008HF 0:25:38 5373 5536 +163 5434
2 CASTIER Philippe 12963 H60 6208HF 0:27:52 5066 5092 +26 5069
3 VERCAUTEREN M-Claude 16229 D45 6008HF 0:29:11 4443 4863 +420 4519
4 ROUX Catherine 13270 D45 6205HF 0:32:05 4307 4423 +116 4393
5 CHARLES Thierry 1514 H60 0207HF 0:32:14 4209 4403 +194 4295
6 HUMBERTCLAUDE J-Paul 16205 H70 5909HF 0:34:03 4587 4168 -419 4587
7 VARIN Séverine 31497 D45 5906HF 0:40:07 3994 3537 -457 3955
8 NOEL Annie 23019 D45 6205HF 0:41:27 3292 3424 +132 3425
9 CORDEIRO MENDES Myriam 9235 D55 6008HF 0:42:23 3901 3348 -553 3888
10 TORZ Didier 9164 H60 5906HF 0:44:24 3288 3196 -92 3191
11 PRESSON Bernard 14900 H60 6009HF 0:46:05 3615 3079 -536 3355
12 LECOYER Regis 2884 H65 0207HF 0:51:42 2829 2745 -84 2832
13 MOULIERE M-Bernadette 2888 D75 0207HF 0:58:03 2785 2445 -340 2813
14 LECOYER Annick 2885 D65 0207HF 0:59:23 3010 2390 -620 2978
15 PRUVOST Virginie 25881 D45 6208HF 1:04:17 3076 2208 -868 3071
16 TORZ-DRUON Magali 10081 D65 5906HF 1:10:01 2732 2027 -705 2796
17 BELLENGIER Sabine 25381 D45 6208HF 1:26:14 2898 1646 -1252 2924
18 BEN KHALED Isabelle 13761 D60 5909HF 1:30:03 1576 0
19 LUDEWIG-JAMES Carol 15894 D80 5907HF 1:44:42 2009 1355 -654 2009
20 CHOPIN Juliette 29940 D45 6203HF 1:50:41 2619 1282 -1337 2619
21 MATHYS Fabienne 35058 D45 5906HF 1:55:11 1011 1232 +221 1428